Airfield :
LOGIN :

Register | Disclaimer

   EN    FR    IT 

 










Legend :    VFR   Marginal VFR   IFR   Intensive IFR   Very Intensive IFR
Visi :
Ceiling :
>= 8 km
>= 3000ft
5 to 8 km
1000 to 3000 ft
1500m to 5 km
500 to 1000 ft
800 to 1500m
200 to 500 ft
< 800m
< 200 ft
Symbols :   Thunderstorms  Fog  Heavy snow  Heavy precipitations  Wind > 20 kt
SIGMETs :     Misc.  Thunderstorms  Icing  Turbulence  Mountain Waves  Volcanic Ashes






- Airport Elevation : 436 ft
- IATA code : ANG


LFBU - Angoulême Brie Champniers

CURRENT METAR :
  • 140730Z AUTO 26007KT 220V290 5000 -RA BR BKN008 BKN019 OVC026 11/10 Q1007 TEMPO 26020G35KT RA

EXPIRED METARs :
  • 140700Z AUTO 27010KT 6000 -RA BKN007 OVC012 11/10 Q1007 TEMPO 26020G35KT 3000 RA
  • 140630Z AUTO 29011KT 5000 -RA BR OVC007 11/10 Q1007 TEMPO 26020G35KT RA
  • 140600Z AUTO 29014KT 3700 RA BR BKN007 BKN014 OVC020 11/10 Q1006 TEMPO 26020G35KT
  • 140530Z AUTO 30020KT 3500 R28/1400U RA BR BKN007 OVC014 11/10 Q1006 TEMPO 26020G35KT
  • 140500Z AUTO 25017G31KT 9999 OVC009 13/11 Q1005

TAF TAF LFBU
Valid from the 14 at 06:00 until the 15 at 06:00 UTC


140500Z 1406/1506 26015G25KT 9999 OVC017
PROB40 1406/1412 26020G35KT 3000 RA OVC008
PROB40 1412/1416 3000 RA OVC010
TEMPO 1416/1504 4000 RA



MET'MAP, your aeronautical weather chart ! - Copyright ORBIFLY December 2007 - Disclaimer

ORBIFLY MET'MAP TEAM :

Programming & Development : Alexandra Zaïnal
Concept & original design : Baudouin d'Aumeries
Assistance for programming : Marc-Olivier Méhu
Technical & hardware support : Manuel Goepfert

Contact : metmap@orbifly.com




SOURCES & CREDITS :

   NOAA